sensor_id;sensor_type;location;lat;lon;timestamp;temperature;humidity
59015;DHT22;44799;53.382;14.666;2022-09-17T00:00:22;11.80;99.90
59015;DHT22;44799;53.382;14.666;2022-09-17T00:02:50;11.90;99.90
59015;DHT22;44799;53.382;14.666;2022-09-17T00:05:23;11.90;99.90
59015;DHT22;44799;53.382;14.666;2022-09-17T00:07:50;11.90;99.90
59015;DHT22;44799;53.382;14.666;2022-09-17T00:10:18;11.90;99.90
59015;DHT22;44799;53.382;14.666;2022-09-17T00:12:45;11.90;99.90
59015;DHT22;44799;53.382;14.666;2022-09-17T00:15:11;11.90;99.90
59015;DHT22;44799;53.382;14.666;2022-09-17T00:17:37;11.80;99.90
59015;DHT22;44799;53.382;14.666;2022-09-17T00:20:04;11.70;99.90
59015;DHT22;44799;53.382;14.666;2022-09-17T00:22:33;11.70;99.90
59015;DHT22;44799;53.382;14.666;2022-09-17T00:24:58;11.70;99.90
59015;DHT22;44799;53.382;14.666;2022-09-17T00:27:24;10.70;99.90
59015;DHT22;44799;53.382;14.666;2022-09-17T00:29:50;11.60;99.90
59015;DHT22;44799;53.382;14.666;2022-09-17T00:32:15;11.60;99.90
59015;DHT22;44799;53.382;14.666;2022-09-17T00:34:42;11.10;99.90
59015;DHT22;44799;53.382;14.666;2022-09-17T00:37:08;11.60;99.90
59015;DHT22;44799;53.382;14.666;2022-09-17T00:39:33;11.50;99.90
59015;DHT22;44799;53.382;14.666;2022-09-17T00:41:59;11.50;99.90
59015;DHT22;44799;53.382;14.666;2022-09-17T00:47:30;11.40;99.90
59015;DHT22;44799;53.382;14.666;2022-09-17T00:53:14;11.40;99.90
59015;DHT22;44799;53.382;14.666;2022-09-17T00:55:46;11.30;99.90
59015;DHT22;44799;53.382;14.666;2022-09-17T00:58:16;11.50;99.90
59015;DHT22;44799;53.382;14.666;2022-09-17T01:00:43;11.50;99.90
59015;DHT22;44799;53.382;14.666;2022-09-17T01:03:12;11.50;99.90
59015;DHT22;44799;53.382;14.666;2022-09-17T01:05:48;11.60;99.90
59015;DHT22;44799;53.382;14.666;2022-09-17T01:16:47;11.60;99.90
59015;DHT22;44799;53.382;14.666;2022-09-17T01:32:51;11.50;99.90
59015;DHT22;44799;53.382;14.666;2022-09-17T01:38:27;11.50;99.90
59015;DHT22;44799;53.382;14.666;2022-09-17T01:41:10;11.50;99.90
59015;DHT22;44799;53.382;14.666;2022-09-17T01:46:56;11.30;99.90
59015;DHT22;44799;53.382;14.666;2022-09-17T01:49:22;11.30;99.90
59015;DHT22;44799;53.382;14.666;2022-09-17T01:51:50;11.30;99.90
59015;DHT22;44799;53.382;14.666;2022-09-17T01:54:26;11.20;99.90
59015;DHT22;44799;53.382;14.666;2022-09-17T02:00:05;11.30;99.90
59015;DHT22;44799;53.382;14.666;2022-09-17T02:02:31;11.30;99.90
59015;DHT22;44799;53.382;14.666;2022-09-17T02:05:09;11.20;99.90
59015;DHT22;44799;53.382;14.666;2022-09-17T02:07:48;11.20;99.90
59015;DHT22;44799;53.382;14.666;2022-09-17T02:10:19;10.10;99.90
59015;DHT22;44799;53.382;14.666;2022-09-17T02:13:00;11.30;99.90
59015;DHT22;44799;53.382;14.666;2022-09-17T02:15:33;11.20;99.90
59015;DHT22;44799;53.382;14.666;2022-09-17T02:20:47;11.20;99.90
59015;DHT22;44799;53.382;14.666;2022-09-17T02:23:16;11.20;99.90
59015;DHT22;44799;53.382;14.666;2022-09-17T02:25:53;11.20;99.90
59015;DHT22;44799;53.382;14.666;2022-09-17T02:28:31;11.30;99.90
59015;DHT22;44799;53.382;14.666;2022-09-17T02:31:00;11.20;99.90
59015;DHT22;44799;53.382;14.666;2022-09-17T02:33:27;11.30;99.90
59015;DHT22;44799;53.382;14.666;2022-09-17T02:35:54;11.30;99.90
59015;DHT22;44799;53.382;14.666;2022-09-17T02:38:24;11.30;99.90
59015;DHT22;44799;53.382;14.666;2022-09-17T02:40:58;11.30;99.90
59015;DHT22;44799;53.382;14.666;2022-09-17T02:46:10;11.40;99.90
59015;DHT22;44799;53.382;14.666;2022-09-17T02:49:19;11.50;99.90
59015;DHT22;44799;53.382;14.666;2022-09-17T02:52:28;11.50;99.90
59015;DHT22;44799;53.382;14.666;2022-09-17T03:00:42;11.50;99.90
59015;DHT22;44799;53.382;14.666;2022-09-17T03:03:18;11.50;99.90
59015;DHT22;44799;53.382;14.666;2022-09-17T03:05:45;11.00;99.90
59015;DHT22;44799;53.382;14.666;2022-09-17T03:08:13;11.60;99.90
59015;DHT22;44799;53.382;14.666;2022-09-17T03:10:39;11.70;99.90
59015;DHT22;44799;53.382;14.666;2022-09-17T03:13:06;11.80;99.90
59015;DHT22;44799;53.382;14.666;2022-09-17T03:15:31;11.80;99.90
59015;DHT22;44799;53.382;14.666;2022-09-17T03:17:57;11.80;99.90
59015;DHT22;44799;53.382;14.666;2022-09-17T03:20:23;11.90;99.90
59015;DHT22;44799;53.382;14.666;2022-09-17T03:22:50;11.90;99.90
59015;DHT22;44799;53.382;14.666;2022-09-17T03:25:16;11.90;99.90
59015;DHT22;44799;53.382;14.666;2022-09-17T03:27:42;11.90;99.90
59015;DHT22;44799;53.382;14.666;2022-09-17T03:30:08;12.00;99.90
59015;DHT22;44799;53.382;14.666;2022-09-17T03:32:34;12.10;99.90
59015;DHT22;44799;53.382;14.666;2022-09-17T03:35:00;12.10;99.90
59015;DHT22;44799;53.382;14.666;2022-09-17T03:37:26;12.10;99.90
59015;DHT22;44799;53.382;14.666;2022-09-17T03:39:52;12.10;99.90
59015;DHT22;44799;53.382;14.666;2022-09-17T03:42:17;12.20;99.90
59015;DHT22;44799;53.382;14.666;2022-09-17T03:44:43;12.30;99.90
59015;DHT22;44799;53.382;14.666;2022-09-17T03:47:09;12.30;99.90
59015;DHT22;44799;53.382;14.666;2022-09-17T03:49:36;12.30;99.90
59015;DHT22;44799;53.382;14.666;2022-09-17T03:52:02;12.30;99.90
59015;DHT22;44799;53.382;14.666;2022-09-17T03:54:29;12.30;99.90
59015;DHT22;44799;53.382;14.666;2022-09-17T03:56:55;12.30;99.90
59015;DHT22;44799;53.382;14.666;2022-09-17T03:59:21;12.30;99.90
59015;DHT22;44799;53.382;14.666;2022-09-17T04:01:47;12.30;99.90
59015;DHT22;44799;53.382;14.666;2022-09-17T04:04:13;12.40;99.90
59015;DHT22;44799;53.382;14.666;2022-09-17T04:06:39;12.50;99.90
59015;DHT22;44799;53.382;14.666;2022-09-17T04:09:05;12.50;99.90
59015;DHT22;44799;53.382;14.666;2022-09-17T04:11:31;12.50;99.90
59015;DHT22;44799;53.382;14.666;2022-09-17T04:13:56;12.50;99.90
59015;DHT22;44799;53.382;14.666;2022-09-17T04:16:22;12.60;99.90
59015;DHT22;44799;53.382;14.666;2022-09-17T04:18:48;12.60;99.90
59015;DHT22;44799;53.382;14.666;2022-09-17T04:21:14;12.60;99.90
59015;DHT22;44799;53.382;14.666;2022-09-17T04:23:40;12.70;99.90
59015;DHT22;44799;53.382;14.666;2022-09-17T04:26:05;12.60;99.90
59015;DHT22;44799;53.382;14.666;2022-09-17T04:28:31;12.50;99.90
59015;DHT22;44799;53.382;14.666;2022-09-17T04:30:57;12.50;99.90
59015;DHT22;44799;53.382;14.666;2022-09-17T04:33:23;12.50;99.90
59015;DHT22;44799;53.382;14.666;2022-09-17T04:35:49;12.50;99.90
59015;DHT22;44799;53.382;14.666;2022-09-17T04:38:14;12.50;99.90
59015;DHT22;44799;53.382;14.666;2022-09-17T04:40:43;12.60;99.90
59015;DHT22;44799;53.382;14.666;2022-09-17T04:43:11;12.70;99.90
59015;DHT22;44799;53.382;14.666;2022-09-17T04:45:37;12.80;99.90
59015;DHT22;44799;53.382;14.666;2022-09-17T04:48:03;12.80;99.90
59015;DHT22;44799;53.382;14.666;2022-09-17T04:50:29;12.30;99.90
59015;DHT22;44799;53.382;14.666;2022-09-17T04:52:55;12.80;99.90
59015;DHT22;44799;53.382;14.666;2022-09-17T04:55:21;12.80;99.90
59015;DHT22;44799;53.382;14.666;2022-09-17T04:57:52;12.80;99.90
59015;DHT22;44799;53.382;14.666;2022-09-17T05:00:19;12.90;99.90
59015;DHT22;44799;53.382;14.666;2022-09-17T05:02:47;12.90;99.90
59015;DHT22;44799;53.382;14.666;2022-09-17T05:05:15;12.90;99.90
59015;DHT22;44799;53.382;14.666;2022-09-17T05:07:41;13.00;99.90
59015;DHT22;44799;53.382;14.666;2022-09-17T05:10:08;13.10;99.90
59015;DHT22;44799;53.382;14.666;2022-09-17T05:12:34;13.00;99.90
59015;DHT22;44799;53.382;14.666;2022-09-17T05:15:00;13.00;99.90
59015;DHT22;44799;53.382;14.666;2022-09-17T05:17:25;13.10;99.90
59015;DHT22;44799;53.382;14.666;2022-09-17T05:19:51;13.10;99.90
59015;DHT22;44799;53.382;14.666;2022-09-17T05:22:18;13.20;99.90
59015;DHT22;44799;53.382;14.666;2022-09-17T05:24:44;13.20;99.90
59015;DHT22;44799;53.382;14.666;2022-09-17T05:27:11;13.20;99.90
59015;DHT22;44799;53.382;14.666;2022-09-17T05:29:37;13.20;99.90
59015;DHT22;44799;53.382;14.666;2022-09-17T05:32:03;13.20;99.90
59015;DHT22;44799;53.382;14.666;2022-09-17T05:34:29;13.30;99.90
59015;DHT22;44799;53.382;14.666;2022-09-17T05:36:55;13.30;99.90
59015;DHT22;44799;53.382;14.666;2022-09-17T05:39:21;13.30;99.90
59015;DHT22;44799;53.382;14.666;2022-09-17T05:41:51;13.20;99.90
59015;DHT22;44799;53.382;14.666;2022-09-17T05:44:17;13.20;99.90
59015;DHT22;44799;53.382;14.666;2022-09-17T05:46:43;14.80;99.90
59015;DHT22;44799;53.382;14.666;2022-09-17T05:49:10;13.20;99.90
59015;DHT22;44799;53.382;14.666;2022-09-17T05:51:36;13.20;99.90
59015;DHT22;44799;53.382;14.666;2022-09-17T05:54:02;13.30;99.90
59015;DHT22;44799;53.382;14.666;2022-09-17T05:56:28;13.30;99.90
59015;DHT22;44799;53.382;14.666;2022-09-17T05:58:55;13.40;99.90
59015;DHT22;44799;53.382;14.666;2022-09-17T06:01:22;13.40;99.90
59015;DHT22;44799;53.382;14.666;2022-09-17T06:03:48;14.20;99.90
59015;DHT22;44799;53.382;14.666;2022-09-17T06:06:13;13.40;99.90
59015;DHT22;44799;53.382;14.666;2022-09-17T06:08:39;13.50;99.90
59015;DHT22;44799;53.382;14.666;2022-09-17T06:11:06;13.50;99.90
59015;DHT22;44799;53.382;14.666;2022-09-17T06:13:33;13.60;99.90
59015;DHT22;44799;53.382;14.666;2022-09-17T06:15:59;13.50;99.90
59015;DHT22;44799;53.382;14.666;2022-09-17T06:18:27;13.60;99.90
59015;DHT22;44799;53.382;14.666;2022-09-17T06:21:00;13.60;99.90
59015;DHT22;44799;53.382;14.666;2022-09-17T06:23:27;13.60;99.90
59015;DHT22;44799;53.382;14.666;2022-09-17T06:25:57;13.60;99.90
59015;DHT22;44799;53.382;14.666;2022-09-17T06:28:27;13.70;99.90
59015;DHT22;44799;53.382;14.666;2022-09-17T06:30:54;13.80;99.90
59015;DHT22;44799;53.382;14.666;2022-09-17T06:33:22;13.90;99.90
59015;DHT22;44799;53.382;14.666;2022-09-17T06:35:48;14.70;99.90
59015;DHT22;44799;53.382;14.666;2022-09-17T06:38:20;13.90;99.90
59015;DHT22;44799;53.382;14.666;2022-09-17T06:40:50;13.90;99.90
59015;DHT22;44799;53.382;14.666;2022-09-17T06:43:16;13.90;99.90
59015;DHT22;44799;53.382;14.666;2022-09-17T06:45:42;14.00;99.90
59015;DHT22;44799;53.382;14.666;2022-09-17T06:48:08;14.00;99.90
59015;DHT22;44799;53.382;14.666;2022-09-17T06:50:34;14.00;99.90
59015;DHT22;44799;53.382;14.666;2022-09-17T06:53:00;14.00;99.90
59015;DHT22;44799;53.382;14.666;2022-09-17T06:55:26;14.00;99.90
59015;DHT22;44799;53.382;14.666;2022-09-17T06:57:52;14.00;99.90
59015;DHT22;44799;53.382;14.666;2022-09-17T07:00:18;14.10;99.90
59015;DHT22;44799;53.382;14.666;2022-09-17T07:02:54;14.00;99.90
59015;DHT22;44799;53.382;14.666;2022-09-17T07:05:20;14.10;99.90
59015;DHT22;44799;53.382;14.666;2022-09-17T07:07:46;14.20;99.90
59015;DHT22;44799;53.382;14.666;2022-09-17T07:10:12;14.10;99.90
59015;DHT22;44799;53.382;14.666;2022-09-17T07:12:41;14.20;99.90
59015;DHT22;44799;53.382;14.666;2022-09-17T07:15:07;13.80;99.90
59015;DHT22;44799;53.382;14.666;2022-09-17T07:17:37;13.80;99.90
59015;DHT22;44799;53.382;14.666;2022-09-17T07:20:06;14.30;99.90
59015;DHT22;44799;53.382;14.666;2022-09-17T07:22:33;14.40;99.90
59015;DHT22;44799;53.382;14.666;2022-09-17T07:24:58;14.40;99.90
59015;DHT22;44799;53.382;14.666;2022-09-17T07:27:29;14.40;99.90
59015;DHT22;44799;53.382;14.666;2022-09-17T07:29:56;14.30;99.90
59015;DHT22;44799;53.382;14.666;2022-09-17T07:32:22;14.50;99.90
59015;DHT22;44799;53.382;14.666;2022-09-17T07:34:48;14.60;99.90
59015;DHT22;44799;53.382;14.666;2022-09-17T07:37:14;14.70;99.90
59015;DHT22;44799;53.382;14.666;2022-09-17T07:39:40;14.80;99.90
59015;DHT22;44799;53.382;14.666;2022-09-17T07:42:07;14.70;99.90
59015;DHT22;44799;53.382;14.666;2022-09-17T07:44:33;14.80;99.90
59015;DHT22;44799;53.382;14.666;2022-09-17T07:46:59;14.90;99.90
59015;DHT22;44799;53.382;14.666;2022-09-17T07:49:25;14.90;99.90
59015;DHT22;44799;53.382;14.666;2022-09-17T07:51:50;14.90;99.90
59015;DHT22;44799;53.382;14.666;2022-09-17T07:54:16;14.90;99.90
59015;DHT22;44799;53.382;14.666;2022-09-17T07:56:42;14.80;99.90
59015;DHT22;44799;53.382;14.666;2022-09-17T07:59:09;14.90;99.90
59015;DHT22;44799;53.382;14.666;2022-09-17T08:01:35;15.30;99.90
59015;DHT22;44799;53.382;14.666;2022-09-17T08:04:02;14.70;99.90
59015;DHT22;44799;53.382;14.666;2022-09-17T08:06:28;14.70;99.90
59015;DHT22;44799;53.382;14.666;2022-09-17T08:08:55;14.60;99.90
59015;DHT22;44799;53.382;14.666;2022-09-17T08:11:24;14.30;99.90
59015;DHT22;44799;53.382;14.666;2022-09-17T08:13:51;14.70;99.90
59015;DHT22;44799;53.382;14.666;2022-09-17T08:16:18;14.60;99.90
59015;DHT22;44799;53.382;14.666;2022-09-17T08:18:45;14.70;99.90
59015;DHT22;44799;53.382;14.666;2022-09-17T08:21:13;14.70;99.90
59015;DHT22;44799;53.382;14.666;2022-09-17T08:23:40;14.60;99.90
59015;DHT22;44799;53.382;14.666;2022-09-17T08:26:10;14.50;99.90
59015;DHT22;44799;53.382;14.666;2022-09-17T08:28:36;14.40;99.90
59015;DHT22;44799;53.382;14.666;2022-09-17T08:31:05;14.40;99.90
59015;DHT22;44799;53.382;14.666;2022-09-17T08:33:38;13.60;99.90
59015;DHT22;44799;53.382;14.666;2022-09-17T08:36:07;14.50;99.90
59015;DHT22;44799;53.382;14.666;2022-09-17T08:38:34;14.50;99.90
59015;DHT22;44799;53.382;14.666;2022-09-17T08:46:10;14.80;99.90
59015;DHT22;44799;53.382;14.666;2022-09-17T08:48:42;14.90;99.90
59015;DHT22;44799;53.382;14.666;2022-09-17T08:54:29;14.60;99.90
59015;DHT22;44799;53.382;14.666;2022-09-17T09:00:13;14.90;99.90
59015;DHT22;44799;53.382;14.666;2022-09-17T09:05:45;15.10;99.90
59015;DHT22;44799;53.382;14.666;2022-09-17T09:08:35;15.20;99.90
59015;DHT22;44799;53.382;14.666;2022-09-17T09:11:04;15.30;99.90
59015;DHT22;44799;53.382;14.666;2022-09-17T09:13:44;15.20;99.90
59015;DHT22;44799;53.382;14.666;2022-09-17T09:16:17;15.30;99.90
59015;DHT22;44799;53.382;14.666;2022-09-17T09:18:46;15.30;99.90
59015;DHT22;44799;53.382;14.666;2022-09-17T09:21:27;14.30;99.90
59015;DHT22;44799;53.382;14.666;2022-09-17T09:26:47;15.10;99.90
59015;DHT22;44799;53.382;14.666;2022-09-17T09:29:43;15.20;99.90
59015;DHT22;44799;53.382;14.666;2022-09-17T09:35:02;15.20;99.90
59015;DHT22;44799;53.382;14.666;2022-09-17T09:37:39;15.10;99.90
59015;DHT22;44799;53.382;14.666;2022-09-17T09:57:07;15.60;99.90
59015;DHT22;44799;53.382;14.666;2022-09-17T09:59:35;15.70;99.90
59015;DHT22;44799;53.382;14.666;2022-09-17T10:02:01;15.90;99.90
59015;DHT22;44799;53.382;14.666;2022-09-17T10:04:28;15.90;99.90
59015;DHT22;44799;53.382;14.666;2022-09-17T10:07:07;15.20;99.90
59015;DHT22;44799;53.382;14.666;2022-09-17T10:09:36;16.00;99.90
59015;DHT22;44799;53.382;14.666;2022-09-17T10:14:37;16.10;99.90
59015;DHT22;44799;53.382;14.666;2022-09-17T10:17:19;16.20;99.90
59015;DHT22;44799;53.382;14.666;2022-09-17T10:22:37;16.20;99.90
59015;DHT22;44799;53.382;14.666;2022-09-17T10:25:16;16.20;99.90
59015;DHT22;44799;53.382;14.666;2022-09-17T10:27:44;15.60;99.90
59015;DHT22;44799;53.382;14.666;2022-09-17T10:32:37;16.40;99.90
59015;DHT22;44799;53.382;14.666;2022-09-17T10:37:43;16.30;99.90
59015;DHT22;44799;53.382;14.666;2022-09-17T10:42:48;15.90;99.90
59015;DHT22;44799;53.382;14.666;2022-09-17T10:45:25;15.70;99.90
59015;DHT22;44799;53.382;14.666;2022-09-17T10:47:52;15.70;99.90
59015;DHT22;44799;53.382;14.666;2022-09-17T10:50:21;15.80;99.90
59015;DHT22;44799;53.382;14.666;2022-09-17T10:52:57;15.90;99.90
59015;DHT22;44799;53.382;14.666;2022-09-17T10:55:35;15.70;99.90
59015;DHT22;44799;53.382;14.666;2022-09-17T11:15:11;15.40;99.90
59015;DHT22;44799;53.382;14.666;2022-09-17T11:20:55;14.80;99.90
59015;DHT22;44799;53.382;14.666;2022-09-17T11:26:57;14.90;99.90
59015;DHT22;44799;53.382;14.666;2022-09-17T11:35:08;16.00;99.90
59015;DHT22;44799;53.382;14.666;2022-09-17T11:38:13;16.10;99.90
59015;DHT22;44799;53.382;14.666;2022-09-17T11:40:46;16.30;99.90
59015;DHT22;44799;53.382;14.666;2022-09-17T11:43:41;16.40;99.90
59015;DHT22;44799;53.382;14.666;2022-09-17T11:51:39;16.60;99.90
59015;DHT22;44799;53.382;14.666;2022-09-17T11:56:46;17.00;99.90
59015;DHT22;44799;53.382;14.666;2022-09-17T12:01:55;17.00;99.90
59015;DHT22;44799;53.382;14.666;2022-09-17T12:07:01;16.90;99.90
59015;DHT22;44799;53.382;14.666;2022-09-17T12:09:31;16.90;99.90
59015;DHT22;44799;53.382;14.666;2022-09-17T12:12:07;16.90;99.90
59015;DHT22;44799;53.382;14.666;2022-09-17T12:15:02;17.00;99.90
59015;DHT22;44799;53.382;14.666;2022-09-17T12:17:42;16.90;99.90
59015;DHT22;44799;53.382;14.666;2022-09-17T12:20:24;16.90;99.90
59015;DHT22;44799;53.382;14.666;2022-09-17T12:22:53;16.80;99.90
59015;DHT22;44799;53.382;14.666;2022-09-17T12:25:21;16.80;99.90
59015;DHT22;44799;53.382;14.666;2022-09-17T12:27:58;17.00;99.90
59015;DHT22;44799;53.382;14.666;2022-09-17T12:30:32;17.20;99.90
59015;DHT22;44799;53.382;14.666;2022-09-17T12:33:33;17.50;99.40
59015;DHT22;44799;53.382;14.666;2022-09-17T12:38:55;18.10;98.40
59015;DHT22;44799;53.382;14.666;2022-09-17T12:47:13;18.30;97.40
59015;DHT22;44799;53.382;14.666;2022-09-17T12:50:20;18.40;97.70
59015;DHT22;44799;53.382;14.666;2022-09-17T12:58:44;17.80;98.60
59015;DHT22;44799;53.382;14.666;2022-09-17T13:04:12;17.80;98.90
59015;DHT22;44799;53.382;14.666;2022-09-17T13:18:21;16.60;98.20
59015;DHT22;44799;53.382;14.666;2022-09-17T13:20:58;16.10;99.20
59015;DHT22;44799;53.382;14.666;2022-09-17T13:23:40;16.00;99.70
59015;DHT22;44799;53.382;14.666;2022-09-17T13:26:09;15.80;99.90
59015;DHT22;44799;53.382;14.666;2022-09-17T13:28:38;15.80;99.90
59015;DHT22;44799;53.382;14.666;2022-09-17T13:31:04;15.90;99.90
59015;DHT22;44799;53.382;14.666;2022-09-17T13:39:11;16.50;99.90
59015;DHT22;44799;53.382;14.666;2022-09-17T13:42:08;16.80;99.90
59015;DHT22;44799;53.382;14.666;2022-09-17T13:44:39;17.30;99.90
59015;DHT22;44799;53.382;14.666;2022-09-17T13:47:24;17.60;99.90
59015;DHT22;44799;53.382;14.666;2022-09-17T13:49:58;17.80;99.90
59015;DHT22;44799;53.382;14.666;2022-09-17T13:52:45;17.90;99.90
59015;DHT22;44799;53.382;14.666;2022-09-17T13:55:34;17.70;99.40
59015;DHT22;44799;53.382;14.666;2022-09-17T13:58:20;16.40;99.90
59015;DHT22;44799;53.382;14.666;2022-09-17T14:00:55;17.20;99.70
59015;DHT22;44799;53.382;14.666;2022-09-17T14:05:56;17.70;99.90
59015;DHT22;44799;53.382;14.666;2022-09-17T14:08:28;16.40;99.90
59015;DHT22;44799;53.382;14.666;2022-09-17T14:11:00;16.10;99.90
59015;DHT22;44799;53.382;14.666;2022-09-17T14:13:38;15.90;99.90
59015;DHT22;44799;53.382;14.666;2022-09-17T14:22:12;15.60;99.90
59015;DHT22;44799;53.382;14.666;2022-09-17T14:30:17;15.50;99.90
59015;DHT22;44799;53.382;14.666;2022-09-17T14:35:37;15.30;99.90
59015;DHT22;44799;53.382;14.666;2022-09-17T14:43:49;15.00;99.90
59015;DHT22;44799;53.382;14.666;2022-09-17T14:46:33;15.40;99.90
59015;DHT22;44799;53.382;14.666;2022-09-17T14:49:23;15.00;99.90
59015;DHT22;44799;53.382;14.666;2022-09-17T14:51:52;15.20;99.90
59015;DHT22;44799;53.382;14.666;2022-09-17T14:54:23;15.20;99.90
59015;DHT22;44799;53.382;14.666;2022-09-17T14:59:42;15.40;99.90
59015;DHT22;44799;53.382;14.666;2022-09-17T15:02:42;15.50;99.90
59015;DHT22;44799;53.382;14.666;2022-09-17T15:07:50;15.50;99.90
59015;DHT22;44799;53.382;14.666;2022-09-17T15:10:21;15.50;99.90
59015;DHT22;44799;53.382;14.666;2022-09-17T15:12:48;15.60;99.90
59015;DHT22;44799;53.382;14.666;2022-09-17T15:15:25;15.60;99.90
59015;DHT22;44799;53.382;14.666;2022-09-17T15:17:51;15.60;99.90
59015;DHT22;44799;53.382;14.666;2022-09-17T15:20:25;15.70;99.90
59015;DHT22;44799;53.382;14.666;2022-09-17T15:25:38;15.70;99.90
59015;DHT22;44799;53.382;14.666;2022-09-17T15:31:01;15.60;99.90
59015;DHT22;44799;53.382;14.666;2022-09-17T15:33:28;15.50;99.90
59015;DHT22;44799;53.382;14.666;2022-09-17T15:36:00;15.60;99.90
59015;DHT22;44799;53.382;14.666;2022-09-17T15:38:28;15.40;99.90
59015;DHT22;44799;53.382;14.666;2022-09-17T15:40:55;15.30;99.90
59015;DHT22;44799;53.382;14.666;2022-09-17T15:43:37;15.30;99.90
59015;DHT22;44799;53.382;14.666;2022-09-17T15:46:27;15.30;99.90
59015;DHT22;44799;53.382;14.666;2022-09-17T15:48:59;15.30;99.90
59015;DHT22;44799;53.382;14.666;2022-09-17T15:51:29;15.40;99.90
59015;DHT22;44799;53.382;14.666;2022-09-17T15:53:57;15.30;99.90
59015;DHT22;44799;53.382;14.666;2022-09-17T15:56:41;15.20;99.90
59015;DHT22;44799;53.382;14.666;2022-09-17T15:59:28;15.20;99.90
59015;DHT22;44799;53.382;14.666;2022-09-17T16:01:56;15.20;99.90
59015;DHT22;44799;53.382;14.666;2022-09-17T16:04:33;15.20;99.90
59015;DHT22;44799;53.382;14.666;2022-09-17T16:09:42;14.40;99.90
59015;DHT22;44799;53.382;14.666;2022-09-17T16:12:11;15.10;99.90
59015;DHT22;44799;53.382;14.666;2022-09-17T16:14:41;15.10;99.90
59015;DHT22;44799;53.382;14.666;2022-09-17T16:17:53;15.10;99.90
59015;DHT22;44799;53.382;14.666;2022-09-17T16:19:58;15.10;99.90
59015;DHT22;44799;53.382;14.666;2022-09-17T16:22:25;15.10;99.90
59015;DHT22;44799;53.382;14.666;2022-09-17T16:24:53;15.10;99.90
59015;DHT22;44799;53.382;14.666;2022-09-17T16:27:25;15.10;99.90
59015;DHT22;44799;53.382;14.666;2022-09-17T16:30:00;15.00;99.90
59015;DHT22;44799;53.382;14.666;2022-09-17T16:32:27;15.00;99.90
59015;DHT22;44799;53.382;14.666;2022-09-17T16:34:53;15.00;99.90
59015;DHT22;44799;53.382;14.666;2022-09-17T16:37:19;15.10;99.90
59015;DHT22;44799;53.382;14.666;2022-09-17T16:39:44;15.10;99.90
59015;DHT22;44799;53.382;14.666;2022-09-17T16:42:10;15.00;99.90
59015;DHT22;44799;53.382;14.666;2022-09-17T16:44:36;14.90;99.90
59015;DHT22;44799;53.382;14.666;2022-09-17T16:47:02;14.90;99.90
59015;DHT22;44799;53.382;14.666;2022-09-17T16:49:28;14.90;99.90
59015;DHT22;44799;53.382;14.666;2022-09-17T16:51:53;14.90;99.90
59015;DHT22;44799;53.382;14.666;2022-09-17T16:54:19;14.80;99.90
59015;DHT22;44799;53.382;14.666;2022-09-17T16:56:45;14.80;99.90
59015;DHT22;44799;53.382;14.666;2022-09-17T16:59:13;14.80;99.90
59015;DHT22;44799;53.382;14.666;2022-09-17T17:01:39;14.80;99.90
59015;DHT22;44799;53.382;14.666;2022-09-17T17:04:05;14.80;99.90
59015;DHT22;44799;53.382;14.666;2022-09-17T17:06:30;14.80;99.90
59015;DHT22;44799;53.382;14.666;2022-09-17T17:08:57;13.90;99.90
59015;DHT22;44799;53.382;14.666;2022-09-17T17:11:26;14.50;99.90
59015;DHT22;44799;53.382;14.666;2022-09-17T17:13:53;14.40;99.90
59015;DHT22;44799;53.382;14.666;2022-09-17T17:16:21;14.40;99.90
59015;DHT22;44799;53.382;14.666;2022-09-17T17:18:48;14.40;99.90
59015;DHT22;44799;53.382;14.666;2022-09-17T17:21:15;14.40;99.90
59015;DHT22;44799;53.382;14.666;2022-09-17T17:23:41;14.30;99.90
59015;DHT22;44799;53.382;14.666;2022-09-17T17:26:13;14.20;99.90
59015;DHT22;44799;53.382;14.666;2022-09-17T17:28:39;14.30;99.90
59015;DHT22;44799;53.382;14.666;2022-09-17T17:31:05;14.30;99.90
59015;DHT22;44799;53.382;14.666;2022-09-17T17:33:31;14.20;99.90
59015;DHT22;44799;53.382;14.666;2022-09-17T17:36:02;14.30;99.90
59015;DHT22;44799;53.382;14.666;2022-09-17T17:38:28;14.20;99.90
59015;DHT22;44799;53.382;14.666;2022-09-17T17:41:12;14.50;99.90
59015;DHT22;44799;53.382;14.666;2022-09-17T17:43:38;14.30;99.90
59015;DHT22;44799;53.382;14.666;2022-09-17T17:46:06;14.40;99.90
59015;DHT22;44799;53.382;14.666;2022-09-17T17:48:32;14.30;99.90
59015;DHT22;44799;53.382;14.666;2022-09-17T17:51:06;14.20;99.90
59015;DHT22;44799;53.382;14.666;2022-09-17T17:53:33;14.30;99.90
59015;DHT22;44799;53.382;14.666;2022-09-17T17:56:02;14.30;99.90
59015;DHT22;44799;53.382;14.666;2022-09-17T17:58:28;14.30;99.90
59015;DHT22;44799;53.382;14.666;2022-09-17T18:00:54;14.30;99.90
59015;DHT22;44799;53.382;14.666;2022-09-17T18:03:21;14.30;99.90
59015;DHT22;44799;53.382;14.666;2022-09-17T18:05:54;14.40;99.90
59015;DHT22;44799;53.382;14.666;2022-09-17T18:08:23;14.40;99.90
59015;DHT22;44799;53.382;14.666;2022-09-17T18:10:56;14.40;99.90
59015;DHT22;44799;53.382;14.666;2022-09-17T18:13:25;14.30;99.90
59015;DHT22;44799;53.382;14.666;2022-09-17T18:15:55;14.30;99.90
59015;DHT22;44799;53.382;14.666;2022-09-17T18:18:24;14.40;99.90
59015;DHT22;44799;53.382;14.666;2022-09-17T18:20:51;14.40;99.90
59015;DHT22;44799;53.382;14.666;2022-09-17T18:23:21;14.40;99.90
59015;DHT22;44799;53.382;14.666;2022-09-17T18:25:55;14.40;99.90
59015;DHT22;44799;53.382;14.666;2022-09-17T18:28:21;14.40;99.90
59015;DHT22;44799;53.382;14.666;2022-09-17T18:30:47;14.40;99.90
59015;DHT22;44799;53.382;14.666;2022-09-17T18:33:17;14.40;99.90
59015;DHT22;44799;53.382;14.666;2022-09-17T18:35:44;14.40;99.90
59015;DHT22;44799;53.382;14.666;2022-09-17T18:38:10;14.30;99.90
59015;DHT22;44799;53.382;14.666;2022-09-17T18:40:36;14.20;99.90
59015;DHT22;44799;53.382;14.666;2022-09-17T18:43:02;14.10;99.90
59015;DHT22;44799;53.382;14.666;2022-09-17T18:45:30;14.10;99.90
59015;DHT22;44799;53.382;14.666;2022-09-17T18:47:56;13.90;99.90
59015;DHT22;44799;53.382;14.666;2022-09-17T18:50:22;14.00;99.90
59015;DHT22;44799;53.382;14.666;2022-09-17T18:52:48;14.00;99.90
59015;DHT22;44799;53.382;14.666;2022-09-17T18:55:14;14.00;99.90
59015;DHT22;44799;53.382;14.666;2022-09-17T18:57:40;14.00;99.90
59015;DHT22;44799;53.382;14.666;2022-09-17T19:00:06;14.00;99.90
59015;DHT22;44799;53.382;14.666;2022-09-17T19:02:35;14.00;99.90
59015;DHT22;44799;53.382;14.666;2022-09-17T19:05:01;14.10;99.90